Terminal Aerodrome Forecast
Issued by NWS Flagstaff, AZ

Home | Current Version | Previous Version | Text Only | Print | Product List | Glossary On
Versions: 1 2 3 4 5 6 7 8 9 10 11 12 13 14
554
FTUS45 KFGZ 260526
TAFINW
TAF
KINW 260526Z 2606/2706 34010KT P6SM FEW250
     FM262100 28013KT P6SM BKN200
     FM270200 VRB05KT P6SM BKN200=

USA.gov is the U.S. government's official web portal to all federal, state and local government web resources and services.